createdAt,value
2019-02-27T00:00:11.991Z,4.77
2019-02-27T00:01:11.908Z,4.86
2019-02-27T00:02:11.892Z,4.82
2019-02-27T00:03:11.886Z,4.89
2019-02-27T00:04:11.862Z,4.84
2019-02-27T00:05:11.883Z,4.82
2019-02-27T00:06:12.889Z,4.75
2019-02-27T00:07:11.833Z,4.77
2019-02-27T00:08:11.834Z,4.77
2019-02-27T00:09:11.811Z,4.75
2019-02-27T00:10:11.824Z,4.67
2019-02-27T00:11:12.332Z,4.66
2019-02-27T00:12:11.788Z,4.66
2019-02-27T00:13:11.767Z,4.67
2019-02-27T00:14:11.766Z,4.71
2019-02-27T00:15:11.745Z,4.73
2019-02-27T00:16:11.759Z,4.73
2019-02-27T00:17:11.731Z,4.67
2019-02-27T00:18:11.719Z,4.74
2019-02-27T00:19:11.698Z,4.67
2019-02-27T00:20:11.688Z,4.67
2019-02-27T00:21:11.734Z,4.78
2019-02-27T00:22:11.677Z,4.70
2019-02-27T00:23:11.683Z,4.66
2019-02-27T00:24:11.678Z,4.78
2019-02-27T00:25:11.646Z,4.67
2019-02-27T00:26:11.631Z,4.63
2019-02-27T00:27:14.583Z,4.59
2019-02-27T00:28:11.607Z,4.56
2019-02-27T00:29:11.611Z,4.44
2019-02-27T00:30:11.599Z,4.37
2019-02-27T00:31:12.075Z,4.24
2019-02-27T00:32:11.637Z,4.17
2019-02-27T00:33:11.554Z,4.20
2019-02-27T00:34:11.556Z,4.12
2019-02-27T00:35:11.547Z,4.13
2019-02-27T00:36:12.236Z,4.10
2019-02-27T00:37:11.522Z,4.05
2019-02-27T00:38:11.495Z,4.02
2019-02-27T00:39:11.485Z,4.01
2019-02-27T00:40:11.505Z,3.99
2019-02-27T00:41:12.827Z,3.91
2019-02-27T00:42:11.453Z,3.94
2019-02-27T00:43:11.443Z,4.04
2019-02-27T00:44:11.440Z,3.99
2019-02-27T00:45:11.418Z,4.06
2019-02-27T00:46:13.337Z,3.96
2019-02-27T00:47:11.405Z,4.16
2019-02-27T00:48:11.384Z,4.12
2019-02-27T00:49:11.375Z,4.22
2019-02-27T00:50:11.381Z,4.13
2019-02-27T00:51:11.955Z,4.20
2019-02-27T00:52:11.352Z,4.30
2019-02-27T00:53:11.347Z,4.31
2019-02-27T00:54:11.328Z,4.28
2019-02-27T00:55:11.311Z,4.23
2019-02-27T00:56:12.166Z,4.20
2019-02-27T00:57:11.292Z,4.14
2019-02-27T00:58:11.284Z,4.16
2019-02-27T00:59:11.296Z,4.23
2019-02-27T01:00:11.280Z,4.14
2019-02-27T01:01:12.798Z,3.96
2019-02-27T01:02:11.257Z,4.04
2019-02-27T01:03:11.222Z,3.94
2019-02-27T01:04:11.218Z,3.91
2019-02-27T01:05:11.207Z,4.01
2019-02-27T01:06:12.257Z,3.91
2019-02-27T01:07:11.192Z,3.91
2019-02-27T01:08:11.166Z,4.01
2019-02-27T01:09:11.153Z,3.92
2019-02-27T01:10:12.286Z,3.96
2019-02-27T01:11:11.131Z,3.92
2019-02-27T01:12:11.153Z,3.98
2019-02-27T01:13:11.110Z,3.91
2019-02-27T01:14:11.105Z,3.95
2019-02-27T01:15:11.313Z,3.96
2019-02-27T01:16:11.078Z,4.04
2019-02-27T01:17:11.109Z,4.01
2019-02-27T01:18:11.061Z,4.02
2019-02-27T01:19:11.050Z,4.01
2019-02-27T01:20:11.937Z,4.08
2019-02-27T01:21:11.062Z,4.17
2019-02-27T01:22:11.037Z,4.19
2019-02-27T01:23:11.613Z,4.23
2019-02-27T01:24:11.004Z,4.14
2019-02-27T01:25:10.986Z,4.28
2019-02-27T01:26:10.973Z,4.22
2019-02-27T01:27:10.957Z,4.19
2019-02-27T01:28:11.649Z,4.20
2019-02-27T01:29:10.971Z,4.19
2019-02-27T01:30:10.923Z,4.13
2019-02-27T01:31:10.914Z,4.12
2019-02-27T01:32:10.908Z,4.05
2019-02-27T01:33:10.925Z,3.95
2019-02-27T01:34:11.330Z,3.96
2019-02-27T01:35:10.886Z,3.98
2019-02-27T01:36:10.863Z,3.95
2019-02-27T01:37:10.846Z,4.05
2019-02-27T01:38:10.851Z,4.04
2019-02-27T01:39:11.376Z,4.01
2019-02-27T01:40:10.814Z,3.98
2019-02-27T01:41:10.811Z,3.87
2019-02-27T01:42:10.794Z,3.78
2019-02-27T01:43:10.809Z,3.84
2019-02-27T01:44:11.200Z,3.78
2019-02-27T01:45:10.761Z,3.77
2019-02-27T01:46:10.754Z,3.60
2019-02-27T01:47:10.741Z,3.68
2019-02-27T01:48:10.729Z,3.68
2019-02-27T01:49:10.768Z,3.63
2019-02-27T01:50:10.713Z,3.69
2019-02-27T01:51:10.693Z,3.63
2019-02-27T01:52:11.136Z,3.65
2019-02-27T01:53:10.672Z,3.70
2019-02-27T01:54:12.233Z,3.69
2019-02-27T01:55:10.679Z,3.74
2019-02-27T01:56:10.655Z,3.81
2019-02-27T01:57:10.647Z,3.83
2019-02-27T01:58:10.622Z,3.74
2019-02-27T01:59:10.612Z,3.87
2019-02-27T02:00:10.611Z,3.86
2019-02-27T02:01:10.589Z,3.92
2019-02-27T02:02:10.573Z,3.88
2019-02-27T02:03:11.243Z,3.80
2019-02-27T02:04:10.550Z,3.84
2019-02-27T02:05:10.574Z,3.87
2019-02-27T02:06:10.530Z,3.80
2019-02-27T02:07:10.527Z,3.77
2019-02-27T02:08:13.612Z,3.74
2019-02-27T02:09:10.496Z,3.69
2019-02-27T02:10:10.488Z,3.76
2019-02-27T02:11:10.506Z,3.65
2019-02-27T02:12:10.462Z,3.77
2019-02-27T02:13:14.937Z,3.68
2019-02-27T02:14:10.448Z,3.69
2019-02-27T02:15:10.428Z,3.78
2019-02-27T02:16:10.448Z,3.74
2019-02-27T02:17:10.414Z,3.87
2019-02-27T02:18:11.890Z,3.77
2019-02-27T02:19:10.388Z,3.86
2019-02-27T02:20:10.385Z,3.87
2019-02-27T02:21:10.403Z,3.91
2019-02-27T02:22:10.350Z,3.87
2019-02-27T02:23:13.968Z,3.84
2019-02-27T02:24:10.330Z,3.83
2019-02-27T02:25:10.335Z,3.80
2019-02-27T02:26:10.325Z,3.76
2019-02-27T02:27:10.326Z,3.81
2019-02-27T02:28:12.071Z,3.73
2019-02-27T02:29:10.277Z,3.77
2019-02-27T02:30:10.267Z,3.63
2019-02-27T02:31:10.258Z,3.74
2019-02-27T02:32:10.267Z,3.74
2019-02-27T02:33:10.240Z,3.65
2019-02-27T02:34:10.230Z,3.69
2019-02-27T02:35:14.631Z,3.69
2019-02-27T02:36:11.208Z,3.68
2019-02-27T02:37:10.210Z,3.66
2019-02-27T02:38:12.566Z,3.63
2019-02-27T02:39:10.176Z,3.69
2019-02-27T02:40:10.160Z,3.66
2019-02-27T02:41:10.144Z,3.70
2019-02-27T02:42:10.205Z,3.81
2019-02-27T02:43:10.133Z,3.78
2019-02-27T02:44:10.110Z,3.81
2019-02-27T02:45:10.098Z,3.74
2019-02-27T02:46:10.087Z,3.73
2019-02-27T02:47:10.078Z,3.66
2019-02-27T02:48:10.088Z,3.58
2019-02-27T02:49:10.056Z,3.48
2019-02-27T02:50:10.051Z,3.42
2019-02-27T02:51:10.035Z,3.34
2019-02-27T02:52:10.041Z,3.36
2019-02-27T02:53:10.048Z,3.29
2019-02-27T02:54:10.014Z,3.23
2019-02-27T02:55:12.518Z,3.21
2019-02-27T02:56:09.983Z,3.31
2019-02-27T02:57:09.971Z,3.31
2019-02-27T02:58:11.382Z,3.32
2019-02-27T02:59:09.977Z,3.36
2019-02-27T03:00:09.944Z,3.41
2019-02-27T03:01:14.047Z,3.40
2019-02-27T03:02:10.915Z,3.34
2019-02-27T03:03:09.901Z,3.26
2019-02-27T03:04:12.818Z,3.32
2019-02-27T03:05:09.883Z,3.32
2019-02-27T03:06:09.875Z,3.31
2019-02-27T03:07:10.944Z,3.29
2019-02-27T03:08:09.846Z,3.25
2019-02-27T03:09:09.839Z,3.19
2019-02-27T03:10:09.861Z,3.19
2019-02-27T03:11:09.818Z,3.13
2019-02-27T03:12:09.812Z,3.11
2019-02-27T03:13:09.798Z,3.07
2019-02-27T03:14:09.783Z,3.19
2019-02-27T03:15:09.801Z,3.23
2019-02-27T03:16:09.760Z,3.23
2019-02-27T03:17:09.753Z,3.41
2019-02-27T03:18:09.764Z,3.40
2019-02-27T03:19:09.759Z,3.44
2019-02-27T03:20:09.716Z,3.44
2019-02-27T03:21:09.740Z,3.51
2019-02-27T03:22:09.695Z,3.42
2019-02-27T03:23:15.349Z,3.34
2019-02-27T03:24:10.694Z,3.36
2019-02-27T03:25:09.661Z,3.19
2019-02-27T03:26:09.682Z,3.14
2019-02-27T03:27:09.634Z,3.10
2019-02-27T03:28:09.631Z,3.10
2019-02-27T03:29:15.506Z,3.10
2019-02-27T03:30:10.644Z,3.00
2019-02-27T03:31:16.277Z,3.07
2019-02-27T03:32:10.615Z,2.98
2019-02-27T03:33:09.576Z,3.05
2019-02-27T03:34:09.615Z,3.03
2019-02-27T03:35:09.574Z,3.03
2019-02-27T03:36:09.549Z,2.98
2019-02-27T03:37:13.167Z,2.86
2019-02-27T03:38:09.524Z,2.92
2019-02-27T03:39:09.506Z,2.85
2019-02-27T03:40:11.757Z,3.01
2019-02-27T03:41:09.515Z,3.01
2019-02-27T03:42:09.507Z,3.04
2019-02-27T03:43:10.451Z,3.11
2019-02-27T03:44:09.469Z,3.16
2019-02-27T03:45:09.457Z,3.01
2019-02-27T03:46:09.473Z,3.08
2019-02-27T03:47:15.619Z,3.14
2019-02-27T03:48:10.399Z,3.10
2019-02-27T03:49:09.397Z,3.05
2019-02-27T03:50:14.632Z,3.04
2019-02-27T03:51:10.378Z,2.98
2019-02-27T03:52:09.386Z,3.08
2019-02-27T03:53:11.236Z,3.10
2019-02-27T03:54:09.333Z,3.10
2019-02-27T03:55:09.323Z,3.08
2019-02-27T03:56:10.008Z,3.21
2019-02-27T03:57:09.306Z,3.36
2019-02-27T03:58:09.311Z,3.21
2019-02-27T03:59:09.282Z,3.18
2019-02-27T04:00:09.321Z,3.28
2019-02-27T04:01:09.266Z,3.23
2019-02-27T04:02:09.255Z,3.21
2019-02-27T04:03:09.263Z,3.19
2019-02-27T04:04:09.234Z,3.08
2019-02-27T04:05:09.221Z,3.14
2019-02-27T04:06:09.215Z,3.05
2019-02-27T04:07:09.198Z,3.08
2019-02-27T04:08:09.229Z,3.16
2019-02-27T04:09:09.182Z,3.11
2019-02-27T04:10:09.167Z,3.08
2019-02-27T04:11:09.151Z,3.04
2019-02-27T04:12:09.166Z,3.04
2019-02-27T04:13:09.199Z,3.01
2019-02-27T04:14:09.141Z,2.95
2019-02-27T04:15:09.116Z,2.98
2019-02-27T04:16:09.102Z,2.98
2019-02-27T04:17:09.088Z,2.86
2019-02-27T04:18:09.093Z,2.86
2019-02-27T04:19:09.084Z,2.86
2019-02-27T04:20:14.652Z,2.86
2019-02-27T04:21:10.042Z,2.87
2019-02-27T04:22:09.042Z,2.74
2019-02-27T04:23:12.471Z,2.67
2019-02-27T04:24:09.033Z,2.68
2019-02-27T04:25:08.996Z,2.57
2019-02-27T04:26:08.986Z,2.60
2019-02-27T04:27:08.976Z,2.54
2019-02-27T04:28:08.966Z,2.53
2019-02-27T04:29:08.979Z,2.56
2019-02-27T04:30:09.005Z,2.57
2019-02-27T04:31:08.932Z,2.53
2019-02-27T04:32:09.516Z,2.42
2019-02-27T04:33:08.941Z,2.43
2019-02-27T04:34:08.897Z,2.38
2019-02-27T04:35:08.901Z,2.36
2019-02-27T04:36:12.441Z,2.36
2019-02-27T04:37:08.861Z,2.54
2019-02-27T04:38:08.865Z,2.50
2019-02-27T04:39:08.844Z,2.47
2019-02-27T04:40:10.828Z,2.53
2019-02-27T04:41:08.820Z,2.54
2019-02-27T04:42:08.836Z,2.60
2019-02-27T04:43:08.802Z,2.53
2019-02-27T04:44:08.788Z,2.54
2019-02-27T04:45:09.843Z,2.50
2019-02-27T04:46:08.793Z,2.56
2019-02-27T04:47:08.761Z,2.64
2019-02-27T04:48:08.744Z,2.51
2019-02-27T04:49:08.735Z,2.57
2019-02-27T04:50:10.853Z,2.60
2019-02-27T04:51:08.740Z,2.57
2019-02-27T04:52:08.707Z,2.60
2019-02-27T04:53:08.691Z,2.69
2019-02-27T04:54:08.680Z,2.72
2019-02-27T04:55:08.700Z,2.79
2019-02-27T04:56:08.709Z,2.80
2019-02-27T04:57:08.658Z,2.79
2019-02-27T04:58:09.543Z,2.74
2019-02-27T04:59:08.624Z,2.77
2019-02-27T05:00:08.614Z,2.79
2019-02-27T05:01:08.606Z,2.79
2019-02-27T05:02:08.619Z,2.77
2019-02-27T05:03:08.581Z,2.75
2019-02-27T05:04:08.573Z,2.72
2019-02-27T05:05:09.161Z,2.65
2019-02-27T05:06:08.555Z,2.71
2019-02-27T05:07:08.565Z,2.67
2019-02-27T05:08:08.531Z,2.51
2019-02-27T05:09:08.525Z,2.61
2019-02-27T05:10:08.506Z,2.54
2019-02-27T05:11:08.497Z,2.53
2019-02-27T05:12:08.515Z,2.56
2019-02-27T05:13:08.479Z,2.50
2019-02-27T05:14:08.475Z,2.42
2019-02-27T05:15:08.449Z,2.31
2019-02-27T05:16:08.439Z,2.28
2019-02-27T05:17:08.455Z,2.32
2019-02-27T05:18:08.416Z,2.28
2019-02-27T05:19:08.411Z,2.29
2019-02-27T05:20:11.672Z,2.25
2019-02-27T05:21:08.386Z,2.26
2019-02-27T05:22:08.375Z,2.22
2019-02-27T05:23:08.380Z,2.38
2019-02-27T05:24:08.661Z,2.29
2019-02-27T05:25:08.349Z,2.28
2019-02-27T05:26:08.355Z,2.39
2019-02-27T05:27:08.340Z,2.39
2019-02-27T05:28:08.324Z,2.49
2019-02-27T05:29:08.301Z,2.62
2019-02-27T05:30:12.057Z,2.51
2019-02-27T05:31:08.286Z,2.65
2019-02-27T05:32:08.268Z,2.65
2019-02-27T05:33:08.289Z,2.62
2019-02-27T05:34:12.722Z,2.77
2019-02-27T05:35:09.241Z,2.77
2019-02-27T05:36:08.223Z,2.72
2019-02-27T05:37:08.216Z,2.74
2019-02-27T05:38:08.200Z,2.86
2019-02-27T05:39:08.214Z,2.75
2019-02-27T05:40:08.184Z,2.80
2019-02-27T05:41:08.168Z,2.89
2019-02-27T05:42:08.167Z,2.83
2019-02-27T05:43:08.142Z,2.89
2019-02-27T05:44:08.154Z,2.80
2019-02-27T05:45:08.121Z,2.92
2019-02-27T05:46:08.112Z,2.93
2019-02-27T05:47:08.631Z,2.86
2019-02-27T05:48:08.101Z,2.89
2019-02-27T05:49:08.125Z,2.86
2019-02-27T05:50:08.078Z,2.85
2019-02-27T05:51:08.537Z,2.87
2019-02-27T05:52:08.052Z,2.85
2019-02-27T05:53:08.040Z,2.92
2019-02-27T05:54:08.050Z,2.82
2019-02-27T05:55:08.050Z,2.85
2019-02-27T05:56:08.008Z,2.82
2019-02-27T05:57:07.996Z,2.86
2019-02-27T05:58:07.983Z,2.83
2019-02-27T05:59:08.007Z,2.90
2019-02-27T06:00:07.985Z,2.85
2019-02-27T06:01:07.955Z,2.87
2019-02-27T06:02:10.563Z,2.85
2019-02-27T06:03:07.954Z,2.83
2019-02-27T06:04:07.925Z,2.82
2019-02-27T06:05:07.959Z,2.85
2019-02-27T06:06:11.504Z,2.85
2019-02-27T06:07:07.886Z,2.79
2019-02-27T06:08:07.875Z,2.72
2019-02-27T06:09:09.993Z,2.68
2019-02-27T06:10:07.885Z,2.61
2019-02-27T06:11:07.856Z,2.61
2019-02-27T06:12:09.311Z,2.56
2019-02-27T06:13:07.818Z,2.53
2019-02-27T06:14:07.812Z,2.50
2019-02-27T06:15:07.809Z,2.56
2019-02-27T06:16:09.213Z,2.42
2019-02-27T06:17:10.178Z,2.39
2019-02-27T06:18:07.778Z,2.35
2019-02-27T06:19:07.754Z,2.24
2019-02-27T06:20:08.497Z,2.24
2019-02-27T06:21:07.730Z,2.29
2019-02-27T06:22:07.762Z,2.29
2019-02-27T06:23:07.715Z,2.31
2019-02-27T06:24:11.601Z,2.39
2019-02-27T06:25:07.714Z,2.36
2019-02-27T06:26:07.691Z,2.39
2019-02-27T06:27:07.669Z,2.49
2019-02-27T06:28:07.678Z,2.56
2019-02-27T06:29:07.643Z,2.60
2019-02-27T06:30:07.640Z,2.53
2019-02-27T06:31:07.621Z,2.44
2019-02-27T06:32:12.017Z,2.35
2019-02-27T06:33:11.573Z,2.33
2019-02-27T06:34:07.594Z,2.39
2019-02-27T06:35:07.580Z,2.31
2019-02-27T06:36:08.475Z,2.36
2019-02-27T06:37:07.561Z,2.25
2019-02-27T06:38:07.589Z,2.29
2019-02-27T06:39:08.732Z,2.28
2019-02-27T06:40:08.076Z,2.29
2019-02-27T06:41:07.515Z,2.38
2019-02-27T06:42:07.585Z,2.38
2019-02-27T06:43:07.492Z,2.42
2019-02-27T06:44:07.502Z,2.43
2019-02-27T06:45:07.473Z,2.54
2019-02-27T06:46:07.464Z,2.57
2019-02-27T06:47:07.463Z,2.64
2019-02-27T06:48:10.272Z,2.71
2019-02-27T06:49:07.483Z,2.57
2019-02-27T06:50:07.424Z,2.65
2019-02-27T06:51:07.422Z,2.62
2019-02-27T06:52:09.198Z,2.67
2019-02-27T06:53:07.415Z,2.71
2019-02-27T06:54:07.429Z,2.72
2019-02-27T06:55:07.364Z,2.74
2019-02-27T06:56:07.358Z,2.89
2019-02-27T06:57:07.798Z,2.86
2019-02-27T06:58:07.342Z,2.85
2019-02-27T06:59:07.334Z,2.86
2019-02-27T07:00:07.333Z,2.86
2019-02-27T07:01:09.805Z,2.87
2019-02-27T07:02:08.290Z,2.89
2019-02-27T07:03:07.286Z,2.90
2019-02-27T07:04:08.230Z,2.86
2019-02-27T07:05:07.279Z,2.95
2019-02-27T07:06:07.246Z,3.03
2019-02-27T07:07:07.240Z,3.07
2019-02-27T07:08:07.235Z,3.08
2019-02-27T07:09:11.379Z,3.10
2019-02-27T07:10:07.251Z,3.08
2019-02-27T07:11:10.942Z,3.23
2019-02-27T07:12:07.379Z,3.26
2019-02-27T07:13:07.172Z,3.40
2019-02-27T07:14:07.171Z,3.47
2019-02-27T07:15:07.150Z,3.60
2019-02-27T07:16:07.161Z,3.63
2019-02-27T07:17:07.134Z,3.76
2019-02-27T07:18:07.133Z,3.86
2019-02-27T07:19:07.116Z,3.94
2019-02-27T07:20:08.776Z,3.98
2019-02-27T07:21:07.108Z,4.10
2019-02-27T07:22:09.194Z,4.05
2019-02-27T07:23:07.073Z,4.06
2019-02-27T07:24:07.076Z,4.14
2019-02-27T07:25:07.245Z,4.17
2019-02-27T07:26:07.057Z,4.22
2019-02-27T07:27:07.020Z,4.31
2019-02-27T07:28:09.111Z,4.34
2019-02-27T07:29:07.033Z,4.32
2019-02-27T07:30:07.422Z,4.41
2019-02-27T07:31:06.985Z,4.41
2019-02-27T07:32:06.971Z,4.58
2019-02-27T07:33:07.368Z,4.52
2019-02-27T07:34:06.940Z,4.62
2019-02-27T07:35:06.971Z,4.58
2019-02-27T07:36:06.915Z,4.60
2019-02-27T07:37:06.908Z,4.63
2019-02-27T07:38:06.924Z,4.73
2019-02-27T07:39:06.887Z,4.77
2019-02-27T07:40:08.592Z,4.80
2019-02-27T07:41:06.872Z,4.75
2019-02-27T07:42:06.853Z,4.89
2019-02-27T07:43:06.846Z,4.92
2019-02-27T07:44:06.841Z,4.94
2019-02-27T07:45:08.094Z,5.04
2019-02-27T07:46:06.815Z,5.00
2019-02-27T07:47:06.806Z,5.08
2019-02-27T07:48:06.785Z,5.11
2019-02-27T07:49:06.810Z,5.11
2019-02-27T07:50:08.709Z,5.15
2019-02-27T07:51:06.804Z,5.17
2019-02-27T07:52:06.743Z,5.23
2019-02-27T07:53:06.743Z,5.28
2019-02-27T07:54:06.723Z,5.43
2019-02-27T07:55:18.445Z,5.50
2019-02-27T07:56:07.717Z,5.47
2019-02-27T07:57:06.687Z,5.61
2019-02-27T07:58:06.686Z,5.62
2019-02-27T07:59:06.743Z,5.65
2019-02-27T08:00:06.655Z,5.69
2019-02-27T08:01:06.666Z,5.73
2019-02-27T08:02:06.632Z,5.72
2019-02-27T08:03:09.233Z,5.87
2019-02-27T08:04:06.616Z,5.93
2019-02-27T08:05:06.645Z,5.91
2019-02-27T08:06:06.599Z,5.98
2019-02-27T08:07:06.593Z,5.98
2019-02-27T08:08:06.594Z,5.98
2019-02-27T08:09:06.572Z,6.05
2019-02-27T08:10:06.584Z,6.07
2019-02-27T08:11:06.541Z,6.11
2019-02-27T08:12:06.549Z,6.22
2019-02-27T08:13:06.526Z,6.22
2019-02-27T08:14:06.506Z,6.31
2019-02-27T08:15:06.524Z,6.41
2019-02-27T08:16:06.489Z,6.42
2019-02-27T08:17:17.012Z,6.41
2019-02-27T08:18:07.559Z,6.59
2019-02-27T08:19:08.910Z,6.60
2019-02-27T08:20:06.441Z,6.63
2019-02-27T08:21:06.449Z,6.63
2019-02-27T08:22:06.423Z,6.72
2019-02-27T08:23:06.968Z,6.67
2019-02-27T08:24:07.426Z,6.67
2019-02-27T08:25:06.387Z,6.82
2019-02-27T08:26:06.425Z,6.81
2019-02-27T08:27:07.099Z,6.89
2019-02-27T08:28:06.360Z,6.84
2019-02-27T08:29:06.342Z,7.00
2019-02-27T08:30:06.341Z,7.06
2019-02-27T08:31:06.323Z,7.05
2019-02-27T08:32:06.326Z,7.07
2019-02-27T08:33:08.420Z,7.11
2019-02-27T08:34:06.326Z,7.28
2019-02-27T08:35:06.281Z,7.21
2019-02-27T08:36:06.276Z,7.31
2019-02-27T08:37:06.261Z,7.28
2019-02-27T08:38:06.244Z,7.38
2019-02-27T08:39:06.255Z,7.43
2019-02-27T08:40:06.245Z,7.40
2019-02-27T08:41:06.220Z,7.48
2019-02-27T08:42:06.210Z,7.50
2019-02-27T08:43:06.229Z,7.50
2019-02-27T08:44:06.242Z,7.54
2019-02-27T08:45:06.175Z,7.66
2019-02-27T08:46:06.159Z,7.66
2019-02-27T08:47:07.801Z,7.75
2019-02-27T08:48:06.990Z,7.83
2019-02-27T08:49:06.162Z,7.83
2019-02-27T08:50:06.116Z,7.90
2019-02-27T08:51:08.620Z,7.93
2019-02-27T08:52:06.128Z,7.91
2019-02-27T08:53:06.086Z,8.08
2019-02-27T08:54:06.085Z,7.98
2019-02-27T08:55:06.259Z,8.06
2019-02-27T08:56:06.060Z,8.13
2019-02-27T08:57:06.063Z,8.16
2019-02-27T08:58:07.218Z,8.18
2019-02-27T08:59:06.151Z,8.31
2019-02-27T09:00:06.029Z,8.33
2019-02-27T09:01:06.039Z,8.30
2019-02-27T09:02:06.030Z,8.38
2019-02-27T09:03:05.973Z,8.44
2019-02-27T09:04:06.216Z,8.60
2019-02-27T09:05:05.978Z,8.51
2019-02-27T09:06:05.980Z,8.71
2019-02-27T09:07:05.934Z,8.71
2019-02-27T09:08:07.352Z,8.76
2019-02-27T09:09:07.900Z,8.82
2019-02-27T09:10:05.908Z,8.81
2019-02-27T09:11:06.836Z,8.97
2019-02-27T09:12:05.934Z,8.92
2019-02-27T09:13:06.157Z,9.03
2019-02-27T09:14:05.859Z,9.03
2019-02-27T09:15:05.869Z,9.14
2019-02-27T09:16:05.838Z,9.21
2019-02-27T09:17:05.854Z,9.13
2019-02-27T09:18:05.808Z,9.26
2019-02-27T09:19:09.262Z,9.29
2019-02-27T09:20:05.793Z,9.28
2019-02-27T09:21:05.808Z,9.47
2019-02-27T09:22:05.793Z,9.41
2019-02-27T09:23:05.819Z,9.58
2019-02-27T09:24:05.781Z,9.59
2019-02-27T09:25:05.732Z,9.62
2019-02-27T09:26:05.783Z,9.58
2019-02-27T09:27:05.728Z,9.68
2019-02-27T09:28:08.789Z,9.69
2019-02-27T09:29:05.689Z,9.74
2019-02-27T09:30:05.686Z,9.72
2019-02-27T09:31:05.664Z,9.83
2019-02-27T09:32:05.706Z,9.87
2019-02-27T09:33:05.668Z,9.86
2019-02-27T09:34:05.946Z,9.95
2019-02-27T09:35:05.671Z,9.91
2019-02-27T09:36:07.961Z,10.02
2019-02-27T09:37:05.677Z,9.98
2019-02-27T09:38:05.639Z,10.02
2019-02-27T09:39:05.585Z,10.04
2019-02-27T09:40:05.907Z,10.17
2019-02-27T09:41:05.809Z,10.20
2019-02-27T09:42:05.583Z,10.13
2019-02-27T09:43:06.284Z,10.26
2019-02-27T09:44:05.551Z,10.30
2019-02-27T09:45:05.519Z,10.16
2019-02-27T09:46:05.509Z,10.33
2019-02-27T09:47:05.516Z,10.34
2019-02-27T09:48:05.559Z,10.35
2019-02-27T09:49:07.085Z,10.48
2019-02-27T09:50:08.473Z,10.46
2019-02-27T09:51:05.448Z,10.44
2019-02-27T09:52:05.439Z,10.46
2019-02-27T09:53:05.443Z,10.60
2019-02-27T09:54:05.423Z,10.60
2019-02-27T09:55:05.423Z,10.68
2019-02-27T09:56:05.400Z,10.59
2019-02-27T09:57:05.379Z,10.64
2019-02-27T09:58:10.076Z,10.81
2019-02-27T09:59:06.360Z,10.67
2019-02-27T10:00:05.499Z,10.69
2019-02-27T10:01:05.341Z,10.75
2019-02-27T10:02:06.326Z,10.78
2019-02-27T10:03:05.315Z,10.87
2019-02-27T10:04:05.355Z,10.81
2019-02-27T10:05:05.297Z,10.90
2019-02-27T10:06:05.294Z,10.89
2019-02-27T10:07:05.314Z,10.90
2019-02-27T10:08:05.288Z,10.97
2019-02-27T10:09:05.259Z,10.99
2019-02-27T10:10:05.262Z,11.08
2019-02-27T10:11:05.234Z,11.07
2019-02-27T10:12:05.220Z,11.17
2019-02-27T10:13:05.211Z,11.18
2019-02-27T10:14:05.221Z,11.19
2019-02-27T10:15:05.228Z,11.19
2019-02-27T10:16:05.184Z,11.25
2019-02-27T10:17:06.735Z,11.25
2019-02-27T10:18:05.175Z,11.40
2019-02-27T10:19:05.151Z,11.37
2019-02-27T10:20:05.155Z,11.40
2019-02-27T10:21:05.125Z,11.47
2019-02-27T10:22:05.163Z,11.48
2019-02-27T10:23:05.115Z,11.51
2019-02-27T10:24:05.486Z,11.59
2019-02-27T10:25:05.096Z,11.51
2019-02-27T10:26:05.063Z,11.62
2019-02-27T10:27:05.057Z,11.70
2019-02-27T10:28:05.068Z,11.65
2019-02-27T10:29:05.031Z,11.60
2019-02-27T10:30:11.318Z,11.70
2019-02-27T10:31:06.011Z,11.80
2019-02-27T10:32:05.004Z,11.72
2019-02-27T10:33:05.022Z,11.81
2019-02-27T10:34:04.985Z,11.84
2019-02-27T10:35:04.964Z,11.90
2019-02-27T10:36:04.959Z,11.88
2019-02-27T10:37:05.040Z,11.95
2019-02-27T10:38:04.981Z,11.94
2019-02-27T10:39:04.921Z,11.97
2019-02-27T10:40:04.914Z,11.94
2019-02-27T10:41:04.964Z,12.03
2019-02-27T10:42:04.912Z,12.00
2019-02-27T10:43:04.904Z,12.09
2019-02-27T10:44:04.870Z,12.09
2019-02-27T10:45:04.861Z,12.13
2019-02-27T10:46:04.846Z,12.21
2019-02-27T10:47:04.903Z,12.25
2019-02-27T10:48:04.829Z,12.29
2019-02-27T10:49:04.839Z,12.32
2019-02-27T10:50:04.804Z,12.40
2019-02-27T10:51:04.795Z,12.40
2019-02-27T10:52:04.808Z,12.39
2019-02-27T10:53:04.774Z,12.53
2019-02-27T10:54:05.472Z,12.45
2019-02-27T10:55:04.759Z,12.54
2019-02-27T10:56:04.739Z,12.43
2019-02-27T10:57:05.967Z,12.49
2019-02-27T10:58:04.716Z,12.61
2019-02-27T10:59:04.744Z,12.68
2019-02-27T11:00:04.704Z,12.64
2019-02-27T11:01:04.691Z,12.73
2019-02-27T11:02:04.671Z,12.72
2019-02-27T11:03:04.677Z,12.67
2019-02-27T11:04:04.687Z,12.78
2019-02-27T11:05:04.651Z,12.78
2019-02-27T11:06:04.632Z,12.91
2019-02-27T11:07:04.614Z,12.85
2019-02-27T11:08:04.601Z,12.91
2019-02-27T11:09:05.271Z,12.82
2019-02-27T11:10:04.605Z,12.86
2019-02-27T11:11:04.572Z,12.87
2019-02-27T11:12:04.562Z,12.93
2019-02-27T11:13:06.796Z,12.94
2019-02-27T11:14:04.565Z,12.95
2019-02-27T11:15:04.542Z,13.00
2019-02-27T11:16:04.529Z,13.04
2019-02-27T11:17:04.512Z,13.03
2019-02-27T11:18:05.847Z,13.05
2019-02-27T11:19:04.496Z,13.13
2019-02-27T11:20:04.518Z,13.18
2019-02-27T11:21:04.462Z,13.15
2019-02-27T11:22:04.458Z,13.12
2019-02-27T11:23:07.172Z,13.23
2019-02-27T11:24:04.425Z,13.28
2019-02-27T11:25:04.439Z,13.25
2019-02-27T11:26:04.408Z,13.31
2019-02-27T11:27:06.171Z,13.30
2019-02-27T11:28:04.400Z,13.35
2019-02-27T11:29:04.397Z,13.39
2019-02-27T11:30:04.391Z,13.47
2019-02-27T11:31:04.354Z,13.39
2019-02-27T11:32:04.348Z,13.42
2019-02-27T11:33:04.333Z,13.41
2019-02-27T11:34:05.050Z,13.47
2019-02-27T11:35:04.341Z,13.49
2019-02-27T11:36:05.670Z,13.54
2019-02-27T11:37:04.423Z,13.65
2019-02-27T11:38:04.293Z,13.60
2019-02-27T11:39:04.841Z,13.60
2019-02-27T11:40:05.369Z,13.65
2019-02-27T11:41:04.270Z,13.68
2019-02-27T11:42:04.252Z,13.63
2019-02-27T11:43:06.978Z,13.72
2019-02-27T11:44:04.223Z,13.78
2019-02-27T11:45:04.205Z,13.89
2019-02-27T11:46:04.225Z,13.87
2019-02-27T11:47:04.179Z,13.81
2019-02-27T11:48:04.182Z,13.93
2019-02-27T11:49:04.152Z,14.00
2019-02-27T11:50:04.153Z,14.07
2019-02-27T11:51:04.168Z,14.04
2019-02-27T11:52:04.157Z,14.03
2019-02-27T11:53:04.149Z,14.03
2019-02-27T11:54:04.335Z,14.04
2019-02-27T11:55:04.112Z,14.05
2019-02-27T11:56:04.080Z,14.08
2019-02-27T11:57:04.089Z,14.10
2019-02-27T11:58:05.416Z,14.14
2019-02-27T11:59:04.044Z,14.05
2019-02-27T12:00:04.052Z,14.04
2019-02-27T12:01:04.026Z,14.07
2019-02-27T12:02:04.045Z,14.03
2019-02-27T12:03:04.011Z,14.07
2019-02-27T12:04:03.993Z,14.07
2019-02-27T12:05:03.986Z,14.07
2019-02-27T12:06:05.326Z,14.10
2019-02-27T12:07:03.966Z,14.15
2019-02-27T12:08:03.983Z,14.08
2019-02-27T12:09:04.875Z,14.08
2019-02-27T12:10:06.539Z,14.18
2019-02-27T12:11:03.936Z,14.11
2019-02-27T12:12:03.908Z,14.22
2019-02-27T12:13:03.893Z,14.18
2019-02-27T12:14:06.554Z,14.14
2019-02-27T12:15:06.737Z,14.28
2019-02-27T12:16:03.891Z,14.25
2019-02-27T12:17:03.861Z,14.22
2019-02-27T12:18:03.841Z,14.28
2019-02-27T12:19:06.383Z,14.25
2019-02-27T12:20:03.831Z,14.29
2019-02-27T12:21:03.825Z,14.25
2019-02-27T12:22:03.799Z,14.23
2019-02-27T12:23:03.788Z,14.29
2019-02-27T12:24:05.358Z,14.28
2019-02-27T12:25:03.784Z,14.29
2019-02-27T12:26:03.802Z,14.25
2019-02-27T12:27:03.742Z,14.26
2019-02-27T12:28:03.744Z,14.29
2019-02-27T12:29:03.724Z,14.25
2019-02-27T12:30:04.052Z,14.33
2019-02-27T12:31:03.736Z,14.32
2019-02-27T12:32:03.695Z,14.30
2019-02-27T12:33:03.686Z,14.37
2019-02-27T12:34:03.674Z,14.37
2019-02-27T12:35:03.660Z,14.33
2019-02-27T12:36:03.643Z,14.37
2019-02-27T12:37:03.665Z,14.47
2019-02-27T12:38:07.132Z,14.48
2019-02-27T12:39:03.614Z,14.48
2019-02-27T12:40:03.607Z,14.41
2019-02-27T12:41:03.592Z,14.47
2019-02-27T12:42:04.185Z,14.48
2019-02-27T12:43:03.582Z,14.44
2019-02-27T12:44:03.557Z,14.47
2019-02-27T12:45:03.549Z,14.48
2019-02-27T12:46:03.547Z,14.53
2019-02-27T12:47:05.585Z,14.48
2019-02-27T12:48:03.517Z,14.51
2019-02-27T12:49:03.508Z,14.44
2019-02-27T12:50:03.497Z,14.53
2019-02-27T12:51:04.323Z,14.47
2019-02-27T12:52:03.483Z,14.53
2019-02-27T12:53:03.472Z,14.55
2019-02-27T12:54:03.451Z,14.48
2019-02-27T12:55:03.449Z,14.44
2019-02-27T12:56:03.444Z,14.55
2019-02-27T12:57:03.438Z,14.65
2019-02-27T12:58:03.404Z,14.62
2019-02-27T12:59:03.408Z,14.62
2019-02-27T13:00:05.833Z,14.59
2019-02-27T13:01:04.374Z,14.58
2019-02-27T13:02:08.386Z,14.63
2019-02-27T13:03:08.450Z,14.63
2019-02-27T13:04:03.362Z,14.55
2019-02-27T13:05:03.338Z,14.68
2019-02-27T13:06:03.319Z,14.65
2019-02-27T13:07:03.337Z,14.66
2019-02-27T13:08:03.300Z,14.69
2019-02-27T13:09:03.292Z,14.70
2019-02-27T13:10:03.279Z,14.72
2019-02-27T13:11:05.262Z,14.66